Time;durP1;ratioP1;P1;durP2;ratioP2;P2;SDS_P1;SDS_P2;PMS_P1;PMS_P2;Temp;Humidity;BMP_temperature;BMP_pressure;BME280_temperature;BME280_humidity;BME280_pressure;Samples;Min_cycle;Max_cycle;Signal;HPM_P1;HPM_P2
2022/07/03 00:01:50;;;;;;;23.70;21.20;;;;;;;14.67;100.00;99492.80;104882;1273;60609;-76
2022/07/03 00:04:19;;;;;;;22.60;20.30;;;;;;;14.64;100.00;99491.84;104899;1273;60801;-76
2022/07/03 00:06:47;;;;;;;23.70;21.40;;;;;;;14.60;100.00;99491.05;104911;1273;75317;-75
2022/07/03 00:09:14;;;;;;;24.80;22.30;;;;;;;14.56;100.00;99486.74;104913;1273;69288;-76
2022/07/03 00:11:42;;;;;;;23.50;21.10;;;;;;;14.52;100.00;99484.64;104914;1273;74396;-75
2022/07/03 00:14:09;;;;;;;25.20;22.70;;;;;;;14.52;100.00;99480.41;104769;1273;60500;-76
2022/07/03 00:16:36;;;;;;;24.80;22.40;;;;;;;14.55;100.00;99476.44;104958;1273;61095;-76
2022/07/03 00:19:03;;;;;;;25.20;22.20;;;;;;;14.59;100.00;99479.33;104907;1273;75619;-76
2022/07/03 00:21:49;;;;;;;24.30;21.90;;;;;;;14.62;100.00;99475.33;104918;1273;69208;-76
2022/07/03 00:24:25;;;;;;;24.10;21.60;;;;;;;14.65;100.00;99470.63;104882;1273;73291;-75
2022/07/03 00:26:53;;;;;;;22.90;20.60;;;;;;;14.69;100.00;99464.74;104894;1273;60620;-76
2022/07/03 00:29:23;;;;;;;21.00;18.80;;;;;;;14.73;100.00;99463.83;104982;1273;60967;-76
2022/07/03 00:31:50;;;;;;;22.50;20.20;;;;;;;14.77;100.00;99464.52;104670;1273;72747;-76
2022/07/03 00:34:17;;;;;;;23.10;20.90;;;;;;;14.79;100.00;99464.52;104928;1272;68123;-75
2022/07/03 00:36:46;;;;;;;21.80;19.60;;;;;;;14.81;100.00;99465.51;104889;1273;73077;-76
2022/07/03 00:39:13;;;;;;;20.00;18.10;;;;;;;14.83;100.00;99467.33;104884;1273;61288;-76
2022/07/03 00:41:41;;;;;;;20.50;18.40;;;;;;;14.83;100.00;99466.38;104891;1273;61974;-76
2022/07/03 00:44:08;;;;;;;20.60;18.60;;;;;;;14.87;100.00;99469.14;104929;1273;75399;-76
2022/07/03 00:46:38;;;;;;;22.50;20.30;;;;;;;14.88;100.00;99467.81;104941;1273;69186;-76
2022/07/03 00:49:08;;;;;;;21.30;19.20;;;;;;;14.90;100.00;99471.59;105002;1273;74167;-76
2022/07/03 00:51:39;;;;;;;20.00;18.30;;;;;;;14.91;100.00;99464.02;104707;1273;60477;-75
2022/07/03 00:54:08;;;;;;;19.60;17.70;;;;;;;14.92;100.00;99463.17;104963;1273;62238;-75
2022/07/03 00:56:38;;;;;;;18.90;17.20;;;;;;;14.95;100.00;99464.77;104772;1273;75732;-76
2022/07/03 00:59:05;;;;;;;17.40;15.90;;;;;;;14.98;100.00;99463.13;104810;1273;68922;-75
2022/07/03 01:01:35;;;;;;;17.70;16.20;;;;;;;15.01;100.00;99464.79;104899;1273;74468;-76
2022/07/03 01:04:07;;;;;;;17.10;15.50;;;;;;;15.05;100.00;99459.11;104912;1273;61192;-76
2022/07/03 01:06:45;;;;;;;16.80;15.20;;;;;;;15.11;100.00;99459.56;104867;1273;60505;-75
2022/07/03 01:09:12;;;;;;;15.70;14.20;;;;;;;15.16;100.00;99457.04;104943;1273;75199;-76
2022/07/03 01:11:52;;;;;;;17.50;16.00;;;;;;;15.21;100.00;99459.01;104900;1273;70193;-76
2022/07/03 01:14:19;;;;;;;16.60;15.10;;;;;;;15.24;100.00;99451.73;104949;1273;74071;-76
2022/07/03 01:17:10;;;;;;;16.10;14.60;;;;;;;15.29;100.00;99451.01;104906;1273;60495;-76
2022/07/03 01:19:46;;;;;;;16.70;15.20;;;;;;;15.33;100.00;99451.42;104887;1273;60890;-76
2022/07/03 01:22:24;;;;;;;16.80;15.40;;;;;;;15.37;100.00;99454.67;104903;1273;75574;-76
2022/07/03 01:25:13;;;;;;;17.30;15.70;;;;;;;15.41;100.00;99457.19;104912;1273;68528;-76
2022/07/03 01:28:01;;;;;;;17.40;15.90;;;;;;;15.46;100.00;99450.94;104890;1273;74347;-76
2022/07/03 01:30:30;;;;;;;17.00;15.50;;;;;;;15.51;100.00;99451.42;104928;1273;61263;-76
2022/07/03 01:33:10;;;;;;;18.50;16.90;;;;;;;15.54;100.00;99447.52;104954;1273;60810;-76
2022/07/03 01:36:07;;;;;;;18.30;16.70;;;;;;;15.58;100.00;99440.80;104615;1273;74636;-76
2022/07/03 01:38:36;;;;;;;16.50;15.10;;;;;;;15.62;100.00;99437.61;104908;1273;69567;-76
2022/07/03 01:41:06;;;;;;;16.40;15.00;;;;;;;15.64;100.00;99432.44;104933;1273;73629;-76
2022/07/03 01:43:36;;;;;;;17.80;16.30;;;;;;;15.66;100.00;99431.94;104987;1273;60665;-76
2022/07/03 01:46:03;;;;;;;17.20;15.70;;;;;;;15.67;100.00;99422.57;105005;1273;60923;-77
2022/07/03 01:48:32;;;;;;;18.80;17.10;;;;;;;15.68;100.00;99424.77;104926;1273;74529;-77
2022/07/03 01:51:00;;;;;;;17.60;16.10;;;;;;;15.69;100.00;99427.96;104930;1273;70405;-79
2022/07/03 01:53:30;;;;;;;19.40;17.40;;;;;;;15.68;100.00;99425.11;104975;1273;73616;-77
2022/07/03 01:55:59;;;;;;;18.70;17.00;;;;;;;15.69;100.00;99429.23;104974;1273;60469;-76
2022/07/03 01:58:26;;;;;;;17.70;16.10;;;;;;;15.70;100.00;99432.22;104912;1273;61771;-76
2022/07/03 02:00:59;;;;;;;17.80;16.30;;;;;;;15.69;100.00;99425.94;104937;1273;74997;-76
2022/07/03 02:03:29;;;;;;;16.00;14.60;;;;;;;15.70;100.00;99429.12;104927;1273;68268;-76
2022/07/03 02:06:09;;;;;;;16.70;15.30;;;;;;;15.70;100.00;99432.38;104967;1273;74452;-76
2022/07/03 02:09:00;;;;;;;17.40;15.80;;;;;;;15.70;100.00;99428.10;104771;1273;61396;-76
2022/07/03 02:11:32;;;;;;;18.10;16.50;;;;;;;15.71;100.00;99427.45;104899;1273;60764;-76
2022/07/03 02:13:59;;;;;;;18.90;17.30;;;;;;;15.71;100.00;99426.20;104912;1273;75350;-76
2022/07/03 02:16:26;;;;;;;16.50;15.10;;;;;;;15.72;100.00;99422.18;104910;1273;60448;-76
2022/07/03 02:19:12;;;;;;;16.90;15.50;;;;;;;15.73;100.00;99423.68;104903;1273;74177;-76
2022/07/03 02:21:46;;;;;;;15.90;14.40;;;;;;;15.74;100.00;99420.55;104947;1273;60467;-76
2022/07/03 02:24:18;;;;;;;16.40;14.90;;;;;;;15.76;100.00;99413.77;104954;1273;60377;-76
2022/07/03 02:26:53;;;;;;;15.00;13.70;;;;;;;15.77;100.00;99418.30;104964;1273;72837;-76
2022/07/03 02:29:24;;;;;;;16.00;14.60;;;;;;;15.79;100.00;99416.19;104946;1273;70119;-75
2022/07/03 02:32:06;;;;;;;16.90;15.30;;;;;;;15.81;100.00;99418.02;104920;1273;73330;-77
2022/07/03 02:34:35;;;;;;;16.30;14.70;;;;;;;15.83;100.00;99415.58;104944;1273;60596;-76
2022/07/03 02:37:17;;;;;;;16.60;15.20;;;;;;;15.84;100.00;99418.90;105036;1273;60489;-75
2022/07/03 02:40:02;;;;;;;15.30;13.80;;;;;;;15.85;100.00;99417.19;105037;1273;74315;-77
2022/07/03 02:42:38;;;;;;;16.80;15.20;;;;;;;15.87;100.00;99418.60;104960;1273;69426;-77
2022/07/03 02:45:08;;;;;;;17.30;15.60;;;;;;;15.89;100.00;99421.16;104979;1273;73340;-74
2022/07/03 02:47:48;;;;;;;16.50;15.00;;;;;;;15.90;100.00;99419.95;104899;1273;60652;-73
2022/07/03 02:50:20;;;;;;;16.80;15.10;;;;;;;15.92;100.00;99420.85;105028;1272;60480;-75
2022/07/03 02:53:22;;;;;;;16.40;14.80;;;;;;;15.94;100.00;99419.42;105155;1273;74725;-75
2022/07/03 02:55:57;;;;;;;17.70;16.00;;;;;;;15.97;100.00;99420.67;105179;1273;69200;-76
2022/07/03 02:58:41;;;;;;;17.70;16.10;;;;;;;15.98;100.00;99417.29;105217;1273;74213;-76
2022/07/03 03:01:15;;;;;;;18.20;16.50;;;;;;;16.01;100.00;99409.95;105425;1273;61355;-77
2022/07/03 03:03:59;;;;;;;16.80;15.20;;;;;;;16.03;100.00;99399.56;105587;1273;60994;-76
2022/07/03 03:06:26;;;;;;;17.00;15.50;;;;;;;16.04;100.00;99391.77;105606;1273;74446;-77
2022/07/03 03:09:03;;;;;;;16.20;14.90;;;;;;;16.05;100.00;99386.11;108113;1272;70186;-77
2022/07/03 03:11:38;;;;;;;16.20;14.80;;;;;;;16.08;100.00;99385.52;108094;1273;74550;-77
2022/07/03 03:14:09;;;;;;;16.80;15.40;;;;;;;16.13;100.00;99384.77;108256;1270;60077;-75
2022/07/03 03:16:45;;;;;;;16.90;15.20;;;;;;;16.18;100.00;99380.54;108096;1273;60485;-77
2022/07/03 03:19:13;;;;;;;16.10;14.70;;;;;;;16.22;100.00;99384.11;105015;1273;74327;-76
2022/07/03 03:22:05;;;;;;;14.60;13.30;;;;;;;16.27;100.00;99388.03;104968;1273;69116;-79
2022/07/03 03:24:33;;;;;;;15.10;13.80;;;;;;;16.32;100.00;99389.94;105024;1273;73237;-79
2022/07/03 03:27:00;;;;;;;15.90;14.30;;;;;;;16.38;100.00;99391.08;104971;1273;61104;-78
2022/07/03 03:29:28;;;;;;;14.90;13.40;;;;;;;16.46;100.00;99392.19;104998;1273;62012;-77
2022/07/03 03:31:54;;;;;;;14.40;13.00;;;;;;;16.50;100.00;99392.54;104924;1273;75495;-77
2022/07/03 03:34:22;;;;;;;15.40;14.10;;;;;;;16.51;100.00;99395.36;104957;1273;70120;-77
2022/07/03 03:36:49;;;;;;;12.80;11.80;;;;;;;16.48;100.00;99393.98;104898;1273;73402;-76
2022/07/03 03:39:16;;;;;;;13.40;12.30;;;;;;;16.47;100.00;99394.73;104928;1273;60534;-76
2022/07/03 03:41:43;;;;;;;13.20;12.10;;;;;;;16.48;100.00;99390.21;104786;1273;61914;-75
2022/07/03 03:44:09;;;;;;;14.10;12.70;;;;;;;16.50;100.00;99396.36;104900;1273;74306;-75
2022/07/03 03:46:36;;;;;;;14.40;13.00;;;;;;;16.50;100.00;99390.55;104921;1273;70258;-75
2022/07/03 03:49:03;;;;;;;15.30;13.90;;;;;;;16.53;100.00;99389.44;104882;1273;60612;-76
2022/07/03 03:51:29;;;;;;;15.20;13.90;;;;;;;16.58;100.00;99387.74;104858;1273;60552;-75
2022/07/03 03:53:56;;;;;;;16.30;14.80;;;;;;;16.63;100.00;99391.43;104902;1273;61809;-76
2022/07/03 03:56:24;;;;;;;16.40;15.10;;;;;;;16.67;100.00;99384.83;104888;1272;73513;-76
2022/07/03 03:58:50;;;;;;;14.50;13.40;;;;;;;16.73;100.00;99386.25;104896;1273;69790;-75
2022/07/03 04:01:17;;;;;;;14.60;13.40;;;;;;;16.81;100.00;99392.29;104865;1273;74691;-76
2022/07/03 04:03:44;;;;;;;14.20;13.00;;;;;;;16.84;100.00;99394.27;104889;1273;61501;-75
2022/07/03 04:06:10;;;;;;;14.50;13.30;;;;;;;16.90;100.00;99397.95;104928;1273;61970;-76
2022/07/03 04:08:37;;;;;;;14.50;13.20;;;;;;;16.95;100.00;99399.45;104904;1273;74611;-77
2022/07/03 04:11:04;;;;;;;14.10;13.00;;;;;;;17.00;100.00;99399.77;104916;1273;69259;-76
2022/07/03 04:13:30;;;;;;;12.60;11.60;;;;;;;17.04;100.00;99392.45;104958;1273;72869;-78
2022/07/03 04:15:57;;;;;;;13.60;12.50;;;;;;;17.07;100.00;99387.77;104919;1273;60363;-76
2022/07/03 04:18:24;;;;;;;13.80;12.70;;;;;;;17.11;100.00;99387.14;104901;1273;61820;-79
2022/07/03 04:20:51;;;;;;;13.60;12.40;;;;;;;17.13;100.00;99385.68;104922;1273;74647;-76
2022/07/03 04:23:18;;;;;;;13.60;12.40;;;;;;;17.18;100.00;99376.30;104897;1273;69083;-74
2022/07/03 04:25:45;;;;;;;14.90;13.60;;;;;;;17.24;100.00;99373.08;104627;1273;384915;-76
2022/07/03 04:28:12;;;;;;;14.40;13.20;;;;;;;17.35;100.00;99370.63;104897;1273;61025;-75
2022/07/03 04:30:39;;;;;;;11.40;10.40;;;;;;;18.42;100.00;99366.46;104753;1273;60939;-76
2022/07/03 04:33:06;;;;;;;12.30;11.40;;;;;;;18.94;100.00;99368.46;105006;1273;74902;-75
2022/07/03 04:35:33;;;;;;;10.90;9.80;;;;;;;19.88;100.00;99358.48;104911;1273;70100;-76
2022/07/03 04:37:59;;;;;;;11.00;10.00;;;;;;;20.45;100.00;99351.85;104911;1273;73275;-77
2022/07/03 04:40:26;;;;;;;10.50;9.60;;;;;;;20.55;100.00;99352.65;104903;1272;60618;-77
2022/07/03 04:42:52;;;;;;;11.30;10.40;;;;;;;20.61;100.00;99353.54;104911;1273;62109;-79
2022/07/03 04:45:19;;;;;;;10.80;9.90;;;;;;;20.44;100.00;99352.66;104776;1273;60396;-76
2022/07/03 04:47:46;;;;;;;10.60;9.80;;;;;;;20.39;100.00;99353.59;104938;1273;70544;-76
2022/07/03 04:50:12;;;;;;;10.40;9.40;;;;;;;20.73;100.00;99352.80;104899;1273;74172;-76
2022/07/03 04:52:39;;;;;;;11.40;10.60;;;;;;;21.05;100.00;99351.16;104817;1273;60587;-76
2022/07/03 04:55:07;;;;;;;10.00;9.30;;;;;;;22.09;100.00;99348.52;104894;1273;62404;-77
2022/07/03 04:57:34;;;;;;;9.10;8.40;;;;;;;23.19;100.00;99352.02;104947;1273;75452;-76
2022/07/03 05:00:01;;;;;;;8.40;7.70;;;;;;;24.05;100.00;99350.13;104956;1272;70396;-76
2022/07/03 05:02:27;;;;;;;8.60;7.70;;;;;;;24.44;100.00;99347.61;104803;1273;74441;-77
2022/07/03 05:04:54;;;;;;;8.80;7.80;;;;;;;24.10;100.00;99354.23;104918;1273;61541;-76
2022/07/03 05:07:21;;;;;;;8.50;7.80;;;;;;;23.65;100.00;99353.83;104911;1272;60532;-76
2022/07/03 05:09:47;;;;;;;9.60;8.80;;;;;;;23.93;100.00;99353.16;104953;1273;75034;-75
2022/07/03 05:12:14;;;;;;;8.80;7.40;;;;;;;24.36;100.00;99351.08;104926;1273;69253;-76
2022/07/03 05:14:40;;;;;;;9.00;8.40;;;;;;;24.15;100.00;99348.66;104830;1273;73373;-76
2022/07/03 05:17:07;;;;;;;7.90;7.30;;;;;;;23.72;100.00;99351.20;104803;1273;60639;-76
2022/07/03 05:19:33;;;;;;;8.10;7.40;;;;;;;23.29;100.00;99359.05;104929;1273;60974;-76
2022/07/03 05:22:00;;;;;;;9.00;8.30;;;;;;;23.02;100.00;99359.89;104918;1273;74269;-75
2022/07/03 05:24:27;;;;;;;8.90;8.10;;;;;;;22.88;100.00;99359.92;104935;1273;69258;-76
2022/07/03 05:26:54;;;;;;;9.00;8.30;;;;;;;22.77;100.00;99359.27;104882;1273;73186;-77
2022/07/03 05:29:20;;;;;;;9.30;8.50;;;;;;;22.62;100.00;99363.50;104925;1273;60918;-78
2022/07/03 05:31:47;;;;;;;9.60;8.70;;;;;;;22.52;100.00;99362.97;104906;1273;61035;-77
2022/07/03 05:34:13;;;;;;;9.00;8.30;;;;;;;22.30;100.00;99359.92;104937;1273;74566;-79
2022/07/03 05:36:40;;;;;;;9.50;8.70;;;;;;;22.09;100.00;99362.52;104918;1273;70143;-79
2022/07/03 05:41:52;;;;;;;9.50;8.70;;;;;;;21.92;100.00;99363.52;104863;1273;61146;-78
2022/07/03 05:44:18;;;;;;;9.50;8.70;;;;;;;21.76;100.00;99361.63;104926;1273;60802;-78
2022/07/03 05:46:45;;;;;;;8.90;8.20;;;;;;;21.88;100.00;99363.22;104922;1273;60441;-78
2022/07/03 05:49:11;;;;;;;9.70;8.80;;;;;;;21.79;100.00;99365.84;104915;1271;70192;-79
2022/07/03 05:51:38;;;;;;;9.70;9.00;;;;;;;21.58;100.00;99361.66;104903;1273;73422;-78
2022/07/03 05:54:04;;;;;;;9.50;8.80;;;;;;;21.60;100.00;99363.61;104884;1273;60480;-78
2022/07/03 05:56:31;;;;;;;10.00;9.20;;;;;;;21.87;100.00;99369.64;104782;1273;60982;-79
2022/07/03 05:58:57;;;;;;;9.70;8.90;;;;;;;22.43;100.00;99365.61;104919;1273;60327;-79
2022/07/03 06:01:24;;;;;;;9.80;8.70;;;;;;;22.75;100.00;99363.65;104816;1273;69463;-79
2022/07/03 06:03:51;;;;;;;8.50;7.90;;;;;;;23.08;100.00;99361.62;104889;1273;73865;-78
2022/07/03 06:06:17;;;;;;;8.10;7.30;;;;;;;23.40;100.00;99357.02;104901;1273;60575;-79
2022/07/03 06:08:44;;;;;;;8.50;7.80;;;;;;;24.12;100.00;99355.22;104897;1273;61298;-78
2022/07/03 06:11:10;;;;;;;8.80;8.10;;;;;;;24.57;100.00;99352.30;104912;1273;74682;-79
2022/07/03 06:13:37;;;;;;;7.70;7.00;;;;;;;24.82;100.00;99345.08;104941;1273;70120;-78
2022/07/03 06:16:03;;;;;;;8.50;7.80;;;;;;;25.04;100.00;99345.36;104931;1273;74261;-79
2022/07/03 06:18:30;;;;;;;7.70;7.10;;;;;;;25.07;100.00;99342.58;104962;1273;60480;-78
2022/07/03 06:20:58;;;;;;;7.20;6.60;;;;;;;25.00;100.00;99339.67;105030;1273;62076;-78
2022/07/03 06:23:24;;;;;;;6.20;5.80;;;;;;;25.12;100.00;99342.58;105280;1271;73745;-80
2022/07/03 06:25:51;;;;;;;6.70;6.10;;;;;;;25.25;100.00;99341.56;104925;1273;69650;-78
2022/07/03 06:28:17;;;;;;;6.10;5.70;;;;;;;25.40;100.00;99340.27;104970;1271;72634;-80
2022/07/03 06:30:44;;;;;;;6.00;5.60;;;;;;;25.43;100.00;99342.75;104995;1272;60619;-80
2022/07/03 06:33:10;;;;;;;6.20;5.80;;;;;;;25.36;100.00;99342.49;104997;1272;60409;-79
2022/07/03 06:35:37;;;;;;;5.00;4.70;;;;;;;25.43;100.00;99333.85;104992;1272;72801;-80
2022/07/03 06:38:04;;;;;;;5.00;4.60;;;;;;;25.82;100.00;99336.89;104989;1271;60505;-81
2022/07/03 06:40:30;;;;;;;4.70;4.40;;;;;;;26.20;100.00;99335.84;104934;1271;74725;-80
2022/07/03 06:42:57;;;;;;;4.40;4.10;;;;;;;26.47;100.00;99332.44;104999;1272;60598;-83
2022/07/03 06:45:24;;;;;;;4.90;4.50;;;;;;;26.75;100.00;99328.98;105030;1271;60841;-79
2022/07/03 06:47:51;;;;;;;4.60;4.30;;;;;;;26.85;100.00;99335.35;104988;1272;74342;-79
2022/07/03 06:50:17;;;;;;;4.40;4.10;;;;;;;26.56;100.00;99329.70;104944;1272;70232;-79
2022/07/03 06:52:44;;;;;;;4.40;4.10;;;;;;;26.31;100.00;99325.09;105009;1273;72823;-80
2022/07/03 06:55:10;;;;;;;4.80;4.40;;;;;;;26.33;100.00;99322.80;105014;1271;60467;-79
2022/07/03 06:57:37;;;;;;;5.00;4.50;;;;;;;26.22;100.00;99317.78;104998;1272;61770;-80
2022/07/03 07:00:05;;;;;;;3.90;3.60;;;;;;;25.94;100.00;99314.33;104967;1273;73728;-81
2022/07/03 07:02:31;;;;;;;4.90;3.90;;;;;;;25.80;100.00;99313.92;105019;1272;70223;-79
2022/07/03 07:04:58;;;;;;;4.40;4.10;;;;;;;25.58;100.00;99306.61;104960;1273;74383;-81
2022/07/03 07:07:24;;;;;;;4.30;4.00;;;;;;;25.39;100.00;99308.53;104967;1273;60470;-78
2022/07/03 07:09:51;;;;;;;4.50;4.20;;;;;;;25.30;100.00;99306.70;104980;1273;60841;-77
2022/07/03 07:12:18;;;;;;;4.90;4.50;;;;;;;25.22;100.00;99302.49;104944;1272;75554;-79
2022/07/03 07:14:44;;;;;;;4.60;4.30;;;;;;;25.05;100.00;99299.36;105058;1273;69370;-79
2022/07/03 07:17:11;;;;;;;4.30;4.00;;;;;;;25.18;100.00;99297.96;104917;1271;74215;-79
2022/07/03 07:19:37;;;;;;;11.80;4.80;;;;;;;25.31;100.00;99298.27;105035;1273;60478;-80
2022/07/03 07:22:05;;;;;;;4.80;4.40;;;;;;;25.46;100.00;99298.50;105018;1272;60953;-78
2022/07/03 07:24:32;;;;;;;4.90;4.60;;;;;;;25.61;100.00;99297.76;104931;1273;74595;-79
2022/07/03 07:26:58;;;;;;;5.10;4.50;;;;;;;25.61;100.00;99298.33;104944;1272;69302;-80
2022/07/03 07:29:25;;;;;;;5.00;4.60;;;;;;;25.53;100.00;99298.54;104871;1273;71334;-78
2022/07/03 07:31:51;;;;;;;5.00;4.60;;;;;;;25.10;100.00;99297.02;105127;1273;60465;-80
2022/07/03 07:34:18;;;;;;;5.00;4.70;;;;;;;24.67;100.00;99296.55;105006;1273;62470;-79
2022/07/03 07:36:45;;;;;;;5.00;4.60;;;;;;;24.67;100.00;99297.59;105000;1273;75318;-82
2022/07/03 07:39:11;;;;;;;4.90;4.50;;;;;;;24.61;100.00;99297.63;105172;1273;69369;-83
2022/07/03 07:41:38;;;;;;;6.30;5.30;;;;;;;24.32;100.00;99296.70;104841;1273;73422;-80
2022/07/03 07:44:05;;;;;;;5.90;5.40;;;;;;;24.14;100.00;99295.51;104964;1273;59577;-81
2022/07/03 07:46:32;;;;;;;5.40;5.10;;;;;;;23.97;100.00;99294.76;105112;1273;61582;-82
2022/07/03 07:48:58;;;;;;;4.90;4.60;;;;;;;23.82;100.00;99284.92;105029;1273;74660;-81
2022/07/03 07:51:25;;;;;;;5.50;5.10;;;;;;;23.96;100.00;99286.86;104993;1273;68194;-80
2022/07/03 07:53:56;;;;;;;5.30;5.00;;;;;;;24.00;100.00;99287.77;104946;1273;74129;-80
2022/07/03 07:56:24;;;;;;;5.10;4.80;;;;;;;24.07;100.00;99290.63;104746;1273;60490;-79
2022/07/03 07:58:51;;;;;;;5.40;5.00;;;;;;;24.30;100.00;99291.14;104960;1273;61314;-78
2022/07/03 08:06:51;;;;;;;6.20;5.70;;;;;;;24.34;100.00;99283.62;104975;1273;73365;-80
2022/07/03 08:09:18;;;;;;;6.70;6.00;;;;;;;24.26;100.00;99283.15;105128;1273;60448;-80
2022/07/03 08:11:44;;;;;;;5.70;5.30;;;;;;;24.45;100.00;99281.39;105053;1273;60492;-81
2022/07/03 08:14:11;;;;;;;5.60;5.20;;;;;;;24.70;100.00;99281.11;104938;1273;74389;-78
2022/07/03 08:16:42;;;;;;;5.10;4.80;;;;;;;24.92;100.00;99285.91;104932;1273;70578;-78
2022/07/03 08:19:08;;;;;;;5.50;5.10;;;;;;;25.08;100.00;99279.73;104999;1273;74142;-79
2022/07/03 08:21:35;;;;;;;5.00;4.70;;;;;;;25.26;100.00;99283.92;104805;1273;60540;-81
2022/07/03 08:24:02;;;;;;;5.70;5.30;;;;;;;25.32;100.00;99284.40;104896;1273;60543;-80
2022/07/03 08:26:29;;;;;;;5.80;5.30;;;;;;;25.21;100.00;99282.02;104842;1273;74399;-78
2022/07/03 08:28:55;;;;;;;6.10;5.60;;;;;;;25.24;100.00;99280.31;104973;1273;69181;-80
2022/07/03 08:31:22;;;;;;;5.70;5.30;;;;;;;25.30;100.00;99278.01;105050;1273;73256;-80
2022/07/03 08:33:49;;;;;;;5.70;5.30;;;;;;;25.34;100.00;99276.56;104963;1273;60486;-80
2022/07/03 08:36:15;;;;;;;5.90;5.40;;;;;;;25.25;100.00;99275.31;104973;1273;61001;-79
2022/07/03 08:38:42;;;;;;;5.80;5.40;;;;;;;25.10;100.00;99271.70;104856;1273;75569;-80
2022/07/03 08:41:10;;;;;;;5.80;5.40;;;;;;;24.93;100.00;99272.27;104991;1273;69851;-80
2022/07/03 08:43:41;;;;;;;5.40;5.00;;;;;;;24.82;100.00;99272.05;104955;1273;72570;-79
2022/07/03 08:46:10;;;;;;;5.50;5.10;;;;;;;24.73;100.00;99276.34;104850;1273;60572;-78
2022/07/03 08:48:37;;;;;;;6.10;5.70;;;;;;;24.81;100.00;99276.88;104944;1273;60496;-81
2022/07/03 08:51:04;;;;;;;6.10;5.60;;;;;;;25.04;100.00;99276.61;105012;1273;74281;-78
2022/07/03 08:53:30;;;;;;;5.90;5.50;;;;;;;25.43;100.00;99278.02;105014;1273;67320;-79
2022/07/03 08:55:58;;;;;;;6.40;5.80;;;;;;;25.73;100.00;99275.16;104949;1273;73506;-81
2022/07/03 08:58:29;;;;;;;5.60;5.20;;;;;;;25.83;100.00;99276.96;104919;1273;60452;-79
2022/07/03 09:00:56;;;;;;;5.60;5.20;;;;;;;25.86;100.00;99275.69;104989;1273;60489;-79
2022/07/03 09:03:24;;;;;;;5.50;5.10;;;;;;;26.26;100.00;99278.98;104991;1273;75418;-80
2022/07/03 09:05:51;;;;;;;5.80;5.40;;;;;;;26.73;100.00;99279.08;104999;1273;70191;-81
2022/07/03 09:08:18;;;;;;;5.40;5.00;;;;;;;27.12;100.00;99277.66;104996;1273;74412;-80
2022/07/03 09:10:45;;;;;;;6.10;5.70;;;;;;;27.55;100.00;99273.19;104963;1272;60441;-79
2022/07/03 09:13:12;;;;;;;5.90;5.40;;;;;;;28.00;100.00;99267.05;104976;1272;62054;-79
2022/07/03 09:15:39;;;;;;;5.80;5.30;;;;;;;28.14;100.00;99266.59;104990;1273;74311;-78
2022/07/03 09:18:07;;;;;;;6.00;5.60;;;;;;;28.02;100.00;99268.27;104967;1273;69356;-80
2022/07/03 09:20:36;;;;;;;6.70;6.30;;;;;;;27.99;100.00;99269.44;104936;1273;73682;-80
2022/07/03 09:23:13;;;;;;;;;;;;;;;28.11;100.00;99274.06;105011;1273;60507;-79
2022/07/03 09:25:54;;;;;;;6.50;5.90;;;;;;;27.86;100.00;99281.77;104974;1273;60704;-79
2022/07/03 09:28:23;;;;;;;7.60;7.00;;;;;;;27.84;100.00;99275.73;105000;1273;75322;-79
2022/07/03 09:31:00;;;;;;;6.90;6.40;;;;;;;27.99;100.00;99270.59;105006;1273;69407;-79
2022/07/03 09:33:27;;;;;;;6.80;6.30;;;;;;;28.03;100.00;99261.36;104975;1273;74451;-79
2022/07/03 09:35:55;;;;;;;6.20;5.70;;;;;;;28.09;100.00;99260.81;105086;1273;60345;-79
2022/07/03 09:38:23;;;;;;;6.20;5.80;;;;;;;28.21;100.00;99261.63;105093;1273;61772;-79
2022/07/03 09:40:52;;;;;;;6.50;5.90;;;;;;;28.33;100.00;99258.34;105050;1273;74650;-79
2022/07/03 09:43:29;;;;;;;5.80;5.50;;;;;;;28.48;100.00;99253.75;105021;1273;69197;-79
2022/07/03 09:46:04;;;;;;;6.60;5.90;;;;;;;28.57;100.00;99252.91;105542;1273;74448;-80
2022/07/03 09:48:41;;;;;;;6.50;5.90;;;;;;;28.52;100.00;99253.16;105086;1273;60431;-81
2022/07/03 09:51:25;;;;;;;6.90;6.30;;;;;;;28.37;99.94;99253.73;105099;1273;60848;-79
2022/07/03 09:53:56;;;;;;;7.70;7.10;;;;;;;28.10;99.12;99248.12;105079;1273;74285;-80
2022/07/03 09:56:25;;;;;;;6.50;6.10;;;;;;;27.67;99.39;99247.49;105104;1273;69178;-80
2022/07/03 09:59:09;;;;;;;6.60;6.10;;;;;;;27.56;100.00;99247.92;104984;1273;71532;-77
2022/07/03 10:01:44;;;;;;;6.90;6.30;;;;;;;27.63;100.00;99250.51;105003;1273;60484;-73
2022/07/03 10:04:21;;;;;;;6.90;6.50;;;;;;;27.70;100.00;99242.61;104962;1271;61784;-75
2022/07/03 10:06:54;;;;;;;7.30;6.70;;;;;;;28.08;100.00;99243.32;104987;1271;75607;-75
2022/07/03 10:09:23;;;;;;;6.60;6.20;;;;;;;28.37;100.00;99244.20;105066;1271;69510;-76
2022/07/03 10:11:50;;;;;;;;;;;;;;;28.67;100.00;99243.77;105033;1271;73257;-77
2022/07/03 10:14:19;;;;;;;7.20;6.60;;;;;;;28.75;99.60;99240.52;105014;1271;60456;-75
2022/07/03 10:16:47;;;;;;;6.50;6.10;;;;;;;28.76;100.00;99237.89;105045;1271;61675;-73
2022/07/03 10:19:18;;;;;;;6.60;6.20;;;;;;;28.78;99.80;99236.31;105075;1271;75769;-74
2022/07/03 10:21:56;;;;;;;7.50;6.90;;;;;;;28.79;99.85;99234.46;104965;1276;69429;-73
2022/07/03 10:24:27;;;;;;;6.70;6.30;;;;;;;28.81;99.06;99233.11;104998;1274;73318;-74
2022/07/03 10:26:55;;;;;;;7.10;6.60;;;;;;;28.70;96.30;99230.30;105005;1271;60597;-75
2022/07/03 10:29:24;;;;;;;6.90;6.40;;;;;;;28.42;92.69;99229.11;105066;1271;61833;-74
2022/07/03 10:31:51;;;;;;;6.70;6.30;;;;;;;27.91;92.45;99225.80;105141;1271;74920;-73
2022/07/03 10:34:22;;;;;;;9.40;8.70;;;;;;;27.53;92.81;99223.31;104989;1271;69748;-74
2022/07/03 10:36:52;;;;;;;8.20;7.50;;;;;;;27.28;93.57;99228.67;105017;1271;73234;-73
2022/07/03 10:39:47;;;;;;;11.50;10.60;;;;;;;27.12;93.61;99225.16;105003;1271;60483;-76
2022/07/03 10:45:13;;;;;;;7.90;7.30;;;;;;;27.32;94.17;99220.69;104938;1273;74652;-75
2022/07/03 10:47:42;;;;;;;7.60;7.10;;;;;;;27.40;92.59;99213.92;104977;1273;69370;-74
2022/07/03 10:50:17;;;;;;;7.20;6.70;;;;;;;27.34;93.16;99208.18;104969;1273;73135;-75
2022/07/03 10:52:44;;;;;;;7.50;7.00;;;;;;;27.38;92.82;99207.98;105035;1272;60492;-75
2022/07/03 10:55:12;;;;;;;7.60;6.90;;;;;;;27.36;92.52;99212.66;104911;1273;61063;-73
2022/07/03 10:57:41;;;;;;;7.30;6.70;;;;;;;27.41;93.11;99207.86;104815;1273;75784;-76
2022/07/03 11:00:14;;;;;;;7.40;6.90;;;;;;;27.63;93.09;99199.41;105081;1273;70246;-76
2022/07/03 11:02:44;;;;;;;7.10;6.60;;;;;;;27.83;93.36;99199.16;104949;1273;73175;-76
2022/07/03 11:05:19;;;;;;;7.50;6.90;;;;;;;27.98;92.60;99199.98;104958;1273;60793;-76
2022/07/03 11:07:55;;;;;;;7.70;6.80;;;;;;;28.01;91.66;99198.20;105003;1273;60884;-75
2022/07/03 11:10:22;;;;;;;7.50;6.50;;;;;;;27.74;91.44;99195.13;104969;1273;72724;-74
2022/07/03 11:13:07;;;;;;;7.30;6.80;;;;;;;27.78;91.40;99196.92;104886;1273;60480;-75
2022/07/03 11:15:36;;;;;;;7.20;6.70;;;;;;;27.84;91.41;99193.10;104971;1274;72167;-74
2022/07/03 11:18:12;;;;;;;;;;;;;;;27.87;91.51;99194.97;104976;1273;60434;-74
2022/07/03 11:20:42;;;;;;;7.60;6.90;;;;;;;27.96;91.67;99191.18;104914;1273;60774;-75
2022/07/03 11:23:26;;;;;;;7.30;6.70;;;;;;;28.11;92.09;99193.03;104894;1273;74250;-75
2022/07/03 11:25:58;;;;;;;7.40;6.80;;;;;;;28.26;90.93;99192.64;104973;1273;69791;-75
2022/07/03 11:28:33;;;;;;;7.80;7.20;;;;;;;28.25;90.03;99191.23;104939;1272;74373;-75
2022/07/03 11:31:15;;;;;;;6.70;6.20;;;;;;;28.03;88.18;99194.88;104933;1273;60475;-75
2022/07/03 11:33:51;;;;;;;7.90;6.70;;;;;;;27.86;86.70;99192.10;104927;1273;60968;-76
2022/07/03 11:36:20;;;;;;;7.30;6.60;;;;;;;27.83;86.34;99188.13;104895;1273;75755;-76